sensor_id;sensor_type;location;lat;lon;timestamp;P1;durP1;ratioP1;P2;durP2;ratioP2
27161;SDS011;54464;50.558;9.704;2023-07-13T00:02:21;3.40;;;1.47;;
27161;SDS011;54464;50.558;9.704;2023-07-13T00:04:47;1.27;;;1.17;;
27161;SDS011;54464;50.558;9.704;2023-07-13T00:07:12;2.70;;;1.73;;
27161;SDS011;54464;50.558;9.704;2023-07-13T00:09:39;1.90;;;1.30;;
27161;SDS011;54464;50.558;9.704;2023-07-13T00:12:05;2.97;;;1.33;;
27161;SDS011;54464;50.558;9.704;2023-07-13T00:14:52;4.10;;;2.03;;
27161;SDS011;54464;50.558;9.704;2023-07-13T00:17:18;4.07;;;1.43;;
27161;SDS011;54464;50.558;9.704;2023-07-13T00:19:44;2.40;;;1.40;;
27161;SDS011;54464;50.558;9.704;2023-07-13T00:22:10;2.03;;;1.50;;
27161;SDS011;54464;50.558;9.704;2023-07-13T00:24:36;3.40;;;1.50;;
27161;SDS011;54464;50.558;9.704;2023-07-13T00:27:07;4.07;;;1.80;;
27161;SDS011;54464;50.558;9.704;2023-07-13T00:29:34;2.70;;;1.50;;
27161;SDS011;54464;50.558;9.704;2023-07-13T00:32:00;2.63;;;1.70;;
27161;SDS011;54464;50.558;9.704;2023-07-13T00:34:27;2.93;;;1.60;;
27161;SDS011;54464;50.558;9.704;2023-07-13T00:36:52;1.80;;;1.37;;
27161;SDS011;54464;50.558;9.704;2023-07-13T00:39:18;2.70;;;1.50;;
27161;SDS011;54464;50.558;9.704;2023-07-13T00:41:45;2.10;;;1.70;;
27161;SDS011;54464;50.558;9.704;2023-07-13T00:44:14;2.00;;;1.50;;
27161;SDS011;54464;50.558;9.704;2023-07-13T00:46:41;2.40;;;1.40;;
27161;SDS011;54464;50.558;9.704;2023-07-13T00:49:07;3.73;;;1.90;;
27161;SDS011;54464;50.558;9.704;2023-07-13T00:51:37;1.80;;;1.37;;
27161;SDS011;54464;50.558;9.704;2023-07-13T00:54:08;2.80;;;1.47;;
27161;SDS011;54464;50.558;9.704;2023-07-13T00:56:36;2.13;;;1.50;;
27161;SDS011;54464;50.558;9.704;2023-07-13T00:59:05;2.60;;;1.67;;
27161;SDS011;54464;50.558;9.704;2023-07-13T01:01:33;3.27;;;1.73;;
27161;SDS011;54464;50.558;9.704;2023-07-13T01:03:58;2.70;;;1.90;;
27161;SDS011;54464;50.558;9.704;2023-07-13T01:06:24;2.90;;;2.17;;
27161;SDS011;54464;50.558;9.704;2023-07-13T01:08:50;3.93;;;2.60;;
27161;SDS011;54464;50.558;9.704;2023-07-13T01:11:19;3.50;;;2.80;;
27161;SDS011;54464;50.558;9.704;2023-07-13T01:13:51;2.70;;;2.33;;
27161;SDS011;54464;50.558;9.704;2023-07-13T01:16:22;3.40;;;2.43;;
27161;SDS011;54464;50.558;9.704;2023-07-13T01:18:50;2.90;;;2.37;;
27161;SDS011;54464;50.558;9.704;2023-07-13T01:21:19;2.77;;;2.10;;
27161;SDS011;54464;50.558;9.704;2023-07-13T01:23:44;2.03;;;1.73;;
27161;SDS011;54464;50.558;9.704;2023-07-13T01:26:13;4.00;;;2.10;;
27161;SDS011;54464;50.558;9.704;2023-07-13T01:28:39;3.70;;;1.90;;
27161;SDS011;54464;50.558;9.704;2023-07-13T01:31:07;2.20;;;1.80;;
27161;SDS011;54464;50.558;9.704;2023-07-13T01:33:36;2.50;;;1.60;;
27161;SDS011;54464;50.558;9.704;2023-07-13T01:36:04;4.50;;;2.20;;
27161;SDS011;54464;50.558;9.704;2023-07-13T01:38:34;2.90;;;2.20;;
27161;SDS011;54464;50.558;9.704;2023-07-13T01:41:03;3.77;;;2.10;;
27161;SDS011;54464;50.558;9.704;2023-07-13T01:43:29;4.63;;;2.50;;
27161;SDS011;54464;50.558;9.704;2023-07-13T01:45:55;4.00;;;2.53;;
27161;SDS011;54464;50.558;9.704;2023-07-13T01:48:20;3.53;;;2.50;;
27161;SDS011;54464;50.558;9.704;2023-07-13T01:50:49;3.77;;;2.40;;
27161;SDS011;54464;50.558;9.704;2023-07-13T01:53:15;4.57;;;2.50;;
27161;SDS011;54464;50.558;9.704;2023-07-13T01:55:41;3.87;;;2.93;;
27161;SDS011;54464;50.558;9.704;2023-07-13T01:58:12;3.30;;;2.50;;
27161;SDS011;54464;50.558;9.704;2023-07-13T02:00:38;2.87;;;2.20;;
27161;SDS011;54464;50.558;9.704;2023-07-13T02:03:03;4.30;;;2.43;;
27161;SDS011;54464;50.558;9.704;2023-07-13T02:05:29;2.70;;;2.30;;
27161;SDS011;54464;50.558;9.704;2023-07-13T02:08:00;2.73;;;2.20;;
27161;SDS011;54464;50.558;9.704;2023-07-13T02:10:31;3.30;;;2.13;;
27161;SDS011;54464;50.558;9.704;2023-07-13T02:12:56;3.63;;;1.87;;
27161;SDS011;54464;50.558;9.704;2023-07-13T02:15:22;3.67;;;1.93;;
27161;SDS011;54464;50.558;9.704;2023-07-13T02:17:50;2.17;;;1.70;;
27161;SDS011;54464;50.558;9.704;2023-07-13T02:20:18;2.77;;;1.90;;
27161;SDS011;54464;50.558;9.704;2023-07-13T02:22:44;3.13;;;1.97;;
27161;SDS011;54464;50.558;9.704;2023-07-13T02:25:10;3.30;;;1.90;;
27161;SDS011;54464;50.558;9.704;2023-07-13T02:27:42;2.10;;;1.70;;
27161;SDS011;54464;50.558;9.704;2023-07-13T02:30:08;1.70;;;1.50;;
27161;SDS011;54464;50.558;9.704;2023-07-13T02:32:35;3.07;;;1.80;;
27161;SDS011;54464;50.558;9.704;2023-07-13T02:35:01;2.17;;;1.60;;
27161;SDS011;54464;50.558;9.704;2023-07-13T02:37:29;2.20;;;1.90;;
27161;SDS011;54464;50.558;9.704;2023-07-13T02:39:55;2.47;;;1.80;;
27161;SDS011;54464;50.558;9.704;2023-07-13T02:42:21;3.83;;;1.83;;
27161;SDS011;54464;50.558;9.704;2023-07-13T02:44:46;2.50;;;1.80;;
27161;SDS011;54464;50.558;9.704;2023-07-13T02:47:15;2.50;;;1.70;;
27161;SDS011;54464;50.558;9.704;2023-07-13T02:49:44;3.37;;;2.23;;
27161;SDS011;54464;50.558;9.704;2023-07-13T02:52:09;3.23;;;1.90;;
27161;SDS011;54464;50.558;9.704;2023-07-13T02:54:35;2.00;;;1.80;;
27161;SDS011;54464;50.558;9.704;2023-07-13T02:57:09;3.53;;;1.80;;
27161;SDS011;54464;50.558;9.704;2023-07-13T02:59:35;3.13;;;1.83;;
27161;SDS011;54464;50.558;9.704;2023-07-13T03:02:02;1.93;;;1.77;;
27161;SDS011;54464;50.558;9.704;2023-07-13T03:04:28;2.90;;;1.90;;
27161;SDS011;54464;50.558;9.704;2023-07-13T03:06:54;5.10;;;1.90;;
27161;SDS011;54464;50.558;9.704;2023-07-13T03:09:22;3.07;;;2.10;;
27161;SDS011;54464;50.558;9.704;2023-07-13T03:12:01;3.23;;;1.93;;
27161;SDS011;54464;50.558;9.704;2023-07-13T03:14:27;2.40;;;1.90;;
27161;SDS011;54464;50.558;9.704;2023-07-13T03:16:53;2.17;;;1.63;;
27161;SDS011;54464;50.558;9.704;2023-07-13T03:19:21;2.63;;;1.80;;
27161;SDS011;54464;50.558;9.704;2023-07-13T03:21:53;3.20;;;1.70;;
27161;SDS011;54464;50.558;9.704;2023-07-13T03:24:18;2.30;;;1.80;;
27161;SDS011;54464;50.558;9.704;2023-07-13T03:26:45;3.17;;;1.73;;
27161;SDS011;54464;50.558;9.704;2023-07-13T03:29:13;3.50;;;1.70;;
27161;SDS011;54464;50.558;9.704;2023-07-13T03:31:39;2.00;;;1.40;;
27161;SDS011;54464;50.558;9.704;2023-07-13T03:34:05;3.70;;;1.87;;
27161;SDS011;54464;50.558;9.704;2023-07-13T03:36:39;2.47;;;1.40;;
27161;SDS011;54464;50.558;9.704;2023-07-13T03:39:05;4.57;;;1.63;;
27161;SDS011;54464;50.558;9.704;2023-07-13T03:41:33;3.97;;;1.80;;
27161;SDS011;54464;50.558;9.704;2023-07-13T03:43:58;3.80;;;1.80;;
27161;SDS011;54464;50.558;9.704;2023-07-13T03:46:27;2.30;;;1.60;;
27161;SDS011;54464;50.558;9.704;2023-07-13T03:48:58;3.27;;;1.67;;
27161;SDS011;54464;50.558;9.704;2023-07-13T03:51:24;2.83;;;1.40;;
27161;SDS011;54464;50.558;9.704;2023-07-13T03:53:50;4.20;;;1.53;;
27161;SDS011;54464;50.558;9.704;2023-07-13T03:56:16;2.50;;;1.60;;
27161;SDS011;54464;50.558;9.704;2023-07-13T03:58:44;3.70;;;1.80;;
27161;SDS011;54464;50.558;9.704;2023-07-13T04:01:12;4.13;;;1.80;;
27161;SDS011;54464;50.558;9.704;2023-07-13T04:03:41;2.67;;;1.50;;
27161;SDS011;54464;50.558;9.704;2023-07-13T04:06:22;2.43;;;1.40;;
27161;SDS011;54464;50.558;9.704;2023-07-13T04:08:58;3.40;;;1.50;;
27161;SDS011;54464;50.558;9.704;2023-07-13T04:11:29;3.10;;;1.47;;
27161;SDS011;54464;50.558;9.704;2023-07-13T04:13:56;2.13;;;1.37;;
27161;SDS011;54464;50.558;9.704;2023-07-13T04:16:22;3.33;;;1.47;;
27161;SDS011;54464;50.558;9.704;2023-07-13T04:18:48;3.00;;;1.60;;
27161;SDS011;54464;50.558;9.704;2023-07-13T04:21:14;3.17;;;1.53;;
27161;SDS011;54464;50.558;9.704;2023-07-13T04:23:43;1.40;;;1.30;;
27161;SDS011;54464;50.558;9.704;2023-07-13T04:26:15;2.53;;;1.37;;
27161;SDS011;54464;50.558;9.704;2023-07-13T04:28:41;2.83;;;1.40;;
27161;SDS011;54464;50.558;9.704;2023-07-13T04:31:06;5.00;;;1.73;;
27161;SDS011;54464;50.558;9.704;2023-07-13T04:33:37;3.80;;;1.40;;
27161;SDS011;54464;50.558;9.704;2023-07-13T04:36:03;2.13;;;1.57;;
27161;SDS011;54464;50.558;9.704;2023-07-13T04:38:32;2.53;;;1.43;;
27161;SDS011;54464;50.558;9.704;2023-07-13T04:41:04;3.47;;;1.50;;
27161;SDS011;54464;50.558;9.704;2023-07-13T04:43:32;2.43;;;1.20;;
27161;SDS011;54464;50.558;9.704;2023-07-13T04:46:18;3.03;;;1.40;;
27161;SDS011;54464;50.558;9.704;2023-07-13T04:48:46;1.80;;;1.33;;
27161;SDS011;54464;50.558;9.704;2023-07-13T04:51:14;3.73;;;1.80;;
27161;SDS011;54464;50.558;9.704;2023-07-13T04:53:39;5.70;;;2.20;;
27161;SDS011;54464;50.558;9.704;2023-07-13T04:56:30;5.10;;;2.40;;
27161;SDS011;54464;50.558;9.704;2023-07-13T04:58:55;4.63;;;2.07;;
27161;SDS011;54464;50.558;9.704;2023-07-13T05:01:21;3.17;;;1.90;;
27161;SDS011;54464;50.558;9.704;2023-07-13T05:03:47;3.63;;;1.80;;
27161;SDS011;54464;50.558;9.704;2023-07-13T05:06:13;6.23;;;2.10;;
27161;SDS011;54464;50.558;9.704;2023-07-13T05:08:41;5.53;;;2.20;;
27161;SDS011;54464;50.558;9.704;2023-07-13T05:11:07;3.63;;;2.17;;
27161;SDS011;54464;50.558;9.704;2023-07-13T05:13:35;5.93;;;2.10;;
27161;SDS011;54464;50.558;9.704;2023-07-13T05:16:02;7.83;;;2.67;;
27161;SDS011;54464;50.558;9.704;2023-07-13T05:18:42;5.30;;;2.70;;
27161;SDS011;54464;50.558;9.704;2023-07-13T05:21:18;4.40;;;2.20;;
27161;SDS011;54464;50.558;9.704;2023-07-13T05:23:43;5.13;;;2.03;;
27161;SDS011;54464;50.558;9.704;2023-07-13T05:26:09;4.97;;;1.67;;
27161;SDS011;54464;50.558;9.704;2023-07-13T05:28:35;4.00;;;1.70;;
27161;SDS011;54464;50.558;9.704;2023-07-13T05:31:01;4.17;;;1.43;;
27161;SDS011;54464;50.558;9.704;2023-07-13T05:33:27;4.10;;;1.70;;
27161;SDS011;54464;50.558;9.704;2023-07-13T05:35:52;3.37;;;1.53;;
27161;SDS011;54464;50.558;9.704;2023-07-13T05:38:21;3.30;;;1.70;;
27161;SDS011;54464;50.558;9.704;2023-07-13T05:40:46;4.47;;;1.80;;
27161;SDS011;54464;50.558;9.704;2023-07-13T05:43:12;3.13;;;1.70;;
27161;SDS011;54464;50.558;9.704;2023-07-13T05:45:39;3.50;;;1.63;;
27161;SDS011;54464;50.558;9.704;2023-07-13T05:48:05;4.83;;;1.67;;
27161;SDS011;54464;50.558;9.704;2023-07-13T05:50:31;5.10;;;1.70;;
27161;SDS011;54464;50.558;9.704;2023-07-13T05:52:56;1.90;;;1.20;;
27161;SDS011;54464;50.558;9.704;2023-07-13T05:55:22;2.13;;;1.27;;
27161;SDS011;54464;50.558;9.704;2023-07-13T05:57:48;3.27;;;1.20;;
27161;SDS011;54464;50.558;9.704;2023-07-13T06:00:14;3.00;;;1.53;;
27161;SDS011;54464;50.558;9.704;2023-07-13T06:02:40;2.50;;;1.20;;
27161;SDS011;54464;50.558;9.704;2023-07-13T06:05:06;3.27;;;1.10;;
27161;SDS011;54464;50.558;9.704;2023-07-13T06:07:31;4.20;;;1.57;;
27161;SDS011;54464;50.558;9.704;2023-07-13T06:09:57;3.53;;;1.40;;
27161;SDS011;54464;50.558;9.704;2023-07-13T06:12:24;2.17;;;1.47;;
27161;SDS011;54464;50.558;9.704;2023-07-13T06:14:50;2.97;;;1.20;;
27161;SDS011;54464;50.558;9.704;2023-07-13T06:17:16;1.90;;;1.10;;
27161;SDS011;54464;50.558;9.704;2023-07-13T06:19:41;2.43;;;1.00;;
27161;SDS011;54464;50.558;9.704;2023-07-13T06:22:07;3.37;;;1.40;;
27161;SDS011;54464;50.558;9.704;2023-07-13T06:24:33;1.40;;;1.00;;
27161;SDS011;54464;50.558;9.704;2023-07-13T06:26:58;4.60;;;0.97;;
27161;SDS011;54464;50.558;9.704;2023-07-13T06:29:24;2.83;;;0.97;;
27161;SDS011;54464;50.558;9.704;2023-07-13T06:31:50;2.67;;;1.20;;
27161;SDS011;54464;50.558;9.704;2023-07-13T06:34:15;2.17;;;1.10;;
27161;SDS011;54464;50.558;9.704;2023-07-13T06:36:41;3.93;;;1.00;;
27161;SDS011;54464;50.558;9.704;2023-07-13T06:39:07;3.33;;;1.00;;
27161;SDS011;54464;50.558;9.704;2023-07-13T06:41:32;1.73;;;0.90;;
27161;SDS011;54464;50.558;9.704;2023-07-13T06:43:59;2.27;;;0.73;;
27161;SDS011;54464;50.558;9.704;2023-07-13T06:46:25;3.13;;;1.10;;
27161;SDS011;54464;50.558;9.704;2023-07-13T06:48:51;3.27;;;1.10;;
27161;SDS011;54464;50.558;9.704;2023-07-13T06:51:16;3.67;;;1.10;;
27161;SDS011;54464;50.558;9.704;2023-07-13T06:53:42;3.87;;;1.10;;
27161;SDS011;54464;50.558;9.704;2023-07-13T06:56:08;2.73;;;0.90;;
27161;SDS011;54464;50.558;9.704;2023-07-13T06:58:35;1.87;;;1.20;;
27161;SDS011;54464;50.558;9.704;2023-07-13T07:01:01;2.63;;;1.10;;
27161;SDS011;54464;50.558;9.704;2023-07-13T07:03:28;4.17;;;1.17;;
27161;SDS011;54464;50.558;9.704;2023-07-13T07:05:54;3.60;;;1.00;;
27161;SDS011;54464;50.558;9.704;2023-07-13T07:08:24;2.97;;;1.10;;
27161;SDS011;54464;50.558;9.704;2023-07-13T07:10:50;2.67;;;1.00;;
27161;SDS011;54464;50.558;9.704;2023-07-13T07:13:18;2.63;;;0.93;;
27161;SDS011;54464;50.558;9.704;2023-07-13T07:15:44;1.47;;;0.67;;
27161;SDS011;54464;50.558;9.704;2023-07-13T07:18:10;1.57;;;0.97;;
27161;SDS011;54464;50.558;9.704;2023-07-13T07:20:36;1.80;;;0.80;;
27161;SDS011;54464;50.558;9.704;2023-07-13T07:23:01;2.67;;;0.77;;
27161;SDS011;54464;50.558;9.704;2023-07-13T07:25:27;1.60;;;0.80;;
27161;SDS011;54464;50.558;9.704;2023-07-13T07:27:56;2.10;;;0.70;;
27161;SDS011;54464;50.558;9.704;2023-07-13T07:30:22;4.40;;;0.90;;
27161;SDS011;54464;50.558;9.704;2023-07-13T07:32:48;2.20;;;0.80;;
27161;SDS011;54464;50.558;9.704;2023-07-13T07:35:16;1.50;;;0.80;;
27161;SDS011;54464;50.558;9.704;2023-07-13T07:37:42;1.77;;;0.77;;
27161;SDS011;54464;50.558;9.704;2023-07-13T07:40:07;1.60;;;0.80;;
27161;SDS011;54464;50.558;9.704;2023-07-13T07:42:33;2.50;;;0.80;;
27161;SDS011;54464;50.558;9.704;2023-07-13T07:44:59;2.47;;;0.80;;
27161;SDS011;54464;50.558;9.704;2023-07-13T07:47:25;2.20;;;0.90;;
27161;SDS011;54464;50.558;9.704;2023-07-13T07:49:51;2.20;;;0.90;;
27161;SDS011;54464;50.558;9.704;2023-07-13T07:52:17;2.87;;;0.80;;
27161;SDS011;54464;50.558;9.704;2023-07-13T07:54:43;1.83;;;0.80;;
27161;SDS011;54464;50.558;9.704;2023-07-13T07:57:08;2.67;;;0.73;;
27161;SDS011;54464;50.558;9.704;2023-07-13T07:59:35;2.07;;;0.90;;
27161;SDS011;54464;50.558;9.704;2023-07-13T08:02:04;1.73;;;0.80;;
27161;SDS011;54464;50.558;9.704;2023-07-13T08:04:30;2.87;;;0.80;;
27161;SDS011;54464;50.558;9.704;2023-07-13T08:06:55;1.60;;;0.60;;
27161;SDS011;54464;50.558;9.704;2023-07-13T08:09:41;3.17;;;0.80;;
27161;SDS011;54464;50.558;9.704;2023-07-13T08:12:10;1.67;;;0.60;;
27161;SDS011;54464;50.558;9.704;2023-07-13T08:14:40;1.50;;;0.70;;
27161;SDS011;54464;50.558;9.704;2023-07-13T08:17:05;1.57;;;0.70;;
27161;SDS011;54464;50.558;9.704;2023-07-13T08:19:34;1.20;;;0.73;;
27161;SDS011;54464;50.558;9.704;2023-07-13T08:22:02;1.07;;;0.60;;
27161;SDS011;54464;50.558;9.704;2023-07-13T08:24:28;0.93;;;0.60;;
27161;SDS011;54464;50.558;9.704;2023-07-13T08:27:00;1.20;;;0.63;;
27161;SDS011;54464;50.558;9.704;2023-07-13T08:29:28;3.90;;;0.90;;
27161;SDS011;54464;50.558;9.704;2023-07-13T08:31:57;1.00;;;0.77;;
27161;SDS011;54464;50.558;9.704;2023-07-13T08:34:23;1.67;;;0.70;;
27161;SDS011;54464;50.558;9.704;2023-07-13T08:36:54;2.13;;;0.80;;
27161;SDS011;54464;50.558;9.704;2023-07-13T08:39:19;2.53;;;0.73;;
27161;SDS011;54464;50.558;9.704;2023-07-13T08:41:49;1.83;;;0.87;;
27161;SDS011;54464;50.558;9.704;2023-07-13T08:44:38;2.43;;;0.60;;
27161;SDS011;54464;50.558;9.704;2023-07-13T08:47:14;3.60;;;0.90;;
27161;SDS011;54464;50.558;9.704;2023-07-13T08:49:54;1.47;;;0.60;;
27161;SDS011;54464;50.558;9.704;2023-07-13T08:52:32;1.60;;;0.70;;
27161;SDS011;54464;50.558;9.704;2023-07-13T08:55:05;3.40;;;0.80;;
27161;SDS011;54464;50.558;9.704;2023-07-13T08:57:46;2.93;;;0.70;;
27161;SDS011;54464;50.558;9.704;2023-07-13T09:00:20;3.67;;;0.70;;
27161;SDS011;54464;50.558;9.704;2023-07-13T09:02:49;1.93;;;0.63;;
27161;SDS011;54464;50.558;9.704;2023-07-13T09:05:36;1.03;;;0.50;;
27161;SDS011;54464;50.558;9.704;2023-07-13T09:11:14;0.90;;;0.60;;
27161;SDS011;54464;50.558;9.704;2023-07-13T09:17:10;1.90;;;0.63;;
27161;SDS011;54464;50.558;9.704;2023-07-13T09:20:02;1.90;;;0.70;;
27161;SDS011;54464;50.558;9.704;2023-07-13T09:22:51;1.33;;;0.60;;
27161;SDS011;54464;50.558;9.704;2023-07-13T09:27:55;5.10;;;0.70;;
27161;SDS011;54464;50.558;9.704;2023-07-13T09:30:27;1.60;;;0.70;;
27161;SDS011;54464;50.558;9.704;2023-07-13T09:33:14;1.27;;;0.77;;
27161;SDS011;54464;50.558;9.704;2023-07-13T09:35:40;1.20;;;0.70;;
27161;SDS011;54464;50.558;9.704;2023-07-13T09:38:16;1.77;;;0.70;;
27161;SDS011;54464;50.558;9.704;2023-07-13T09:40:49;1.07;;;0.60;;
27161;SDS011;54464;50.558;9.704;2023-07-13T09:43:28;1.47;;;0.70;;
27161;SDS011;54464;50.558;9.704;2023-07-13T09:45:54;2.13;;;0.50;;
27161;SDS011;54464;50.558;9.704;2023-07-13T09:48:23;1.73;;;0.53;;
27161;SDS011;54464;50.558;9.704;2023-07-13T09:51:07;2.13;;;0.70;;
27161;SDS011;54464;50.558;9.704;2023-07-13T09:53:39;1.00;;;0.60;;
27161;SDS011;54464;50.558;9.704;2023-07-13T09:56:18;3.80;;;0.50;;
27161;SDS011;54464;50.558;9.704;2023-07-13T09:59:02;1.03;;;0.70;;
27161;SDS011;54464;50.558;9.704;2023-07-13T10:01:33;1.10;;;0.70;;
27161;SDS011;54464;50.558;9.704;2023-07-13T10:04:01;2.63;;;0.70;;
27161;SDS011;54464;50.558;9.704;2023-07-13T10:06:26;1.20;;;0.57;;
27161;SDS011;54464;50.558;9.704;2023-07-13T10:11:27;3.17;;;0.50;;
27161;SDS011;54464;50.558;9.704;2023-07-13T10:14:01;0.93;;;0.60;;
27161;SDS011;54464;50.558;9.704;2023-07-13T10:16:35;1.27;;;0.50;;
27161;SDS011;54464;50.558;9.704;2023-07-13T10:19:02;0.70;;;0.60;;
27161;SDS011;54464;50.558;9.704;2023-07-13T10:21:46;1.03;;;0.50;;
27161;SDS011;54464;50.558;9.704;2023-07-13T10:24:20;0.40;;;0.40;;
27161;SDS011;54464;50.558;9.704;2023-07-13T10:29:46;0.60;;;0.50;;
27161;SDS011;54464;50.558;9.704;2023-07-13T10:32:19;1.13;;;0.50;;
27161;SDS011;54464;50.558;9.704;2023-07-13T10:34:49;3.60;;;0.80;;
27161;SDS011;54464;50.558;9.704;2023-07-13T10:37:19;1.77;;;1.27;;
27161;SDS011;54464;50.558;9.704;2023-07-13T10:39:48;0.93;;;0.60;;
27161;SDS011;54464;50.558;9.704;2023-07-13T10:42:21;1.03;;;0.53;;
27161;SDS011;54464;50.558;9.704;2023-07-13T10:44:55;1.05;;;0.60;;
27161;SDS011;54464;50.558;9.704;2023-07-13T10:47:21;2.45;;;0.60;;
27161;SDS011;54464;50.558;9.704;2023-07-13T10:49:49;1.23;;;0.52;;
27161;SDS011;54464;50.558;9.704;2023-07-13T10:55:33;1.35;;;0.40;;
27161;SDS011;54464;50.558;9.704;2023-07-13T11:03:28;1.23;;;0.63;;
27161;SDS011;54464;50.558;9.704;2023-07-13T11:06:05;1.27;;;0.60;;
27161;SDS011;54464;50.558;9.704;2023-07-13T11:08:38;0.60;;;0.60;;
27161;SDS011;54464;50.558;9.704;2023-07-13T11:18:52;3.33;;;0.80;;
27161;SDS011;54464;50.558;9.704;2023-07-13T11:21:27;0.82;;;0.60;;
27161;SDS011;54464;50.558;9.704;2023-07-13T11:29:46;3.03;;;0.73;;
27161;SDS011;54464;50.558;9.704;2023-07-13T11:31:57;1.70;;;0.50;;
27161;SDS011;54464;50.558;9.704;2023-07-13T11:34:29;0.70;;;0.40;;
27161;SDS011;54464;50.558;9.704;2023-07-13T11:36:58;2.83;;;0.60;;
27161;SDS011;54464;50.558;9.704;2023-07-13T11:39:32;0.53;;;0.30;;
27161;SDS011;54464;50.558;9.704;2023-07-13T11:42:09;1.80;;;0.50;;
27161;SDS011;54464;50.558;9.704;2023-07-13T11:44:42;1.67;;;0.47;;
27161;SDS011;54464;50.558;9.704;2023-07-13T11:47:14;0.65;;;0.43;;
27161;SDS011;54464;50.558;9.704;2023-07-13T11:49:48;1.00;;;0.50;;
27161;SDS011;54464;50.558;9.704;2023-07-13T11:52:17;0.85;;;0.50;;
27161;SDS011;54464;50.558;9.704;2023-07-13T11:54:53;1.37;;;0.80;;
27161;SDS011;54464;50.558;9.704;2023-07-13T11:57:28;1.00;;;0.60;;
27161;SDS011;54464;50.558;9.704;2023-07-13T12:00:03;0.77;;;0.40;;
27161;SDS011;54464;50.558;9.704;2023-07-13T12:02:37;0.50;;;0.50;;
27161;SDS011;54464;50.558;9.704;2023-07-13T12:05:05;1.48;;;0.50;;
27161;SDS011;54464;50.558;9.704;2023-07-13T12:07:34;0.77;;;0.52;;
27161;SDS011;54464;50.558;9.704;2023-07-13T12:10:03;2.53;;;0.88;;
27161;SDS011;54464;50.558;9.704;2023-07-13T12:12:53;0.93;;;0.60;;
27161;SDS011;54464;50.558;9.704;2023-07-13T12:15:21;1.05;;;0.63;;
27161;SDS011;54464;50.558;9.704;2023-07-13T12:17:48;1.70;;;0.57;;
27161;SDS011;54464;50.558;9.704;2023-07-13T12:20:20;1.10;;;0.70;;
27161;SDS011;54464;50.558;9.704;2023-07-13T12:22:49;0.50;;;0.50;;
27161;SDS011;54464;50.558;9.704;2023-07-13T12:25:15;1.63;;;0.60;;
27161;SDS011;54464;50.558;9.704;2023-07-13T12:27:42;0.63;;;0.50;;
27161;SDS011;54464;50.558;9.704;2023-07-13T12:30:29;1.27;;;0.50;;
27161;SDS011;54464;50.558;9.704;2023-07-13T12:32:59;1.42;;;0.70;;
27161;SDS011;54464;50.558;9.704;2023-07-13T12:35:28;1.23;;;0.60;;
27161;SDS011;54464;50.558;9.704;2023-07-13T12:37:56;1.27;;;0.60;;
27161;SDS011;54464;50.558;9.704;2023-07-13T12:40:25;2.13;;;0.60;;
27161;SDS011;54464;50.558;9.704;2023-07-13T12:42:56;1.03;;;0.70;;
27161;SDS011;54464;50.558;9.704;2023-07-13T12:45:26;0.93;;;0.63;;
27161;SDS011;54464;50.558;9.704;2023-07-13T12:48:03;1.63;;;0.75;;
27161;SDS011;54464;50.558;9.704;2023-07-13T12:50:36;1.65;;;0.70;;
27161;SDS011;54464;50.558;9.704;2023-07-13T12:56:06;1.70;;;1.40;;
27161;SDS011;54464;50.558;9.704;2023-07-13T12:58:40;1.85;;;1.00;;
27161;SDS011;54464;50.558;9.704;2023-07-13T13:01:09;1.17;;;0.70;;
27161;SDS011;54464;50.558;9.704;2023-07-13T13:03:42;1.27;;;0.90;;
27161;SDS011;54464;50.558;9.704;2023-07-13T13:06:20;1.15;;;0.90;;
27161;SDS011;54464;50.558;9.704;2023-07-13T13:08:51;1.83;;;0.67;;
27161;SDS011;54464;50.558;9.704;2023-07-13T13:11:20;2.33;;;0.90;;
27161;SDS011;54464;50.558;9.704;2023-07-13T13:13:48;3.17;;;0.83;;
27161;SDS011;54464;50.558;9.704;2023-07-13T13:18:57;2.47;;;0.90;;
27161;SDS011;54464;50.558;9.704;2023-07-13T13:21:27;1.03;;;0.70;;
27161;SDS011;54464;50.558;9.704;2023-07-13T13:23:53;1.90;;;0.77;;
27161;SDS011;54464;50.558;9.704;2023-07-13T13:26:19;1.70;;;0.80;;
27161;SDS011;54464;50.558;9.704;2023-07-13T13:28:46;1.57;;;0.70;;
27161;SDS011;54464;50.558;9.704;2023-07-13T13:31:13;1.47;;;0.90;;
27161;SDS011;54464;50.558;9.704;2023-07-13T13:33:40;1.37;;;0.70;;
27161;SDS011;54464;50.558;9.704;2023-07-13T13:36:18;1.27;;;0.70;;
27161;SDS011;54464;50.558;9.704;2023-07-13T13:38:46;1.97;;;0.80;;
27161;SDS011;54464;50.558;9.704;2023-07-13T13:41:13;2.03;;;0.70;;
27161;SDS011;54464;50.558;9.704;2023-07-13T13:43:43;1.13;;;0.77;;
27161;SDS011;54464;50.558;9.704;2023-07-13T13:46:20;2.05;;;0.98;;
27161;SDS011;54464;50.558;9.704;2023-07-13T13:48:53;2.05;;;0.88;;
27161;SDS011;54464;50.558;9.704;2023-07-13T13:51:21;1.23;;;0.70;;
27161;SDS011;54464;50.558;9.704;2023-07-13T13:54:09;1.48;;;0.70;;
27161;SDS011;54464;50.558;9.704;2023-07-13T13:56:35;0.75;;;0.68;;
27161;SDS011;54464;50.558;9.704;2023-07-13T13:59:01;0.93;;;0.70;;
27161;SDS011;54464;50.558;9.704;2023-07-13T14:01:27;2.97;;;0.90;;
27161;SDS011;54464;50.558;9.704;2023-07-13T14:03:54;3.23;;;0.90;;
27161;SDS011;54464;50.558;9.704;2023-07-13T14:06:27;5.35;;;1.30;;
27161;SDS011;54464;50.558;9.704;2023-07-13T14:09:00;1.20;;;0.90;;
27161;SDS011;54464;50.558;9.704;2023-07-13T14:11:26;1.30;;;0.80;;
27161;SDS011;54464;50.558;9.704;2023-07-13T14:13:56;0.93;;;0.88;;
27161;SDS011;54464;50.558;9.704;2023-07-13T14:16:30;1.53;;;1.10;;
27161;SDS011;54464;50.558;9.704;2023-07-13T14:18:56;1.40;;;0.90;;
27161;SDS011;54464;50.558;9.704;2023-07-13T14:21:24;0.80;;;0.80;;
27161;SDS011;54464;50.558;9.704;2023-07-13T14:24:00;2.60;;;0.97;;
27161;SDS011;54464;50.558;9.704;2023-07-13T14:26:26;3.60;;;1.20;;
27161;SDS011;54464;50.558;9.704;2023-07-13T14:28:55;1.70;;;1.00;;
27161;SDS011;54464;50.558;9.704;2023-07-13T14:31:25;1.90;;;1.10;;
27161;SDS011;54464;50.558;9.704;2023-07-13T14:34:03;1.00;;;0.80;;
27161;SDS011;54464;50.558;9.704;2023-07-13T14:36:42;2.00;;;0.90;;
27161;SDS011;54464;50.558;9.704;2023-07-13T14:39:18;1.80;;;1.00;;
27161;SDS011;54464;50.558;9.704;2023-07-13T14:41:52;2.43;;;0.90;;
27161;SDS011;54464;50.558;9.704;2023-07-13T14:44:25;1.30;;;0.90;;
27161;SDS011;54464;50.558;9.704;2023-07-13T14:46:54;1.40;;;0.97;;
27161;SDS011;54464;50.558;9.704;2023-07-13T14:52:20;1.10;;;1.00;;
27161;SDS011;54464;50.558;9.704;2023-07-13T14:54:47;2.97;;;0.90;;
27161;SDS011;54464;50.558;9.704;2023-07-13T14:57:22;1.67;;;0.98;;
27161;SDS011;54464;50.558;9.704;2023-07-13T14:59:50;1.40;;;0.80;;
27161;SDS011;54464;50.558;9.704;2023-07-13T15:02:17;2.17;;;0.90;;
27161;SDS011;54464;50.558;9.704;2023-07-13T15:04:57;2.23;;;1.10;;
27161;SDS011;54464;50.558;9.704;2023-07-13T15:07:26;1.80;;;0.90;;
27161;SDS011;54464;50.558;9.704;2023-07-13T15:09:52;1.90;;;0.83;;
27161;SDS011;54464;50.558;9.704;2023-07-13T15:12:18;2.05;;;0.80;;
27161;SDS011;54464;50.558;9.704;2023-07-13T15:14:44;1.43;;;0.87;;
27161;SDS011;54464;50.558;9.704;2023-07-13T15:17:18;1.10;;;0.90;;
27161;SDS011;54464;50.558;9.704;2023-07-13T15:20:04;1.60;;;1.03;;
27161;SDS011;54464;50.558;9.704;2023-07-13T15:22:40;1.63;;;1.10;;
27161;SDS011;54464;50.558;9.704;2023-07-13T15:25:17;1.30;;;1.00;;
27161;SDS011;54464;50.558;9.704;2023-07-13T15:27:53;2.93;;;0.90;;
27161;SDS011;54464;50.558;9.704;2023-07-13T15:30:20;2.95;;;0.80;;
27161;SDS011;54464;50.558;9.704;2023-07-13T15:32:54;3.63;;;0.97;;
27161;SDS011;54464;50.558;9.704;2023-07-13T15:35:28;0.95;;;0.77;;
27161;SDS011;54464;50.558;9.704;2023-07-13T15:37:53;1.00;;;0.80;;
27161;SDS011;54464;50.558;9.704;2023-07-13T15:40:19;4.03;;;0.80;;
27161;SDS011;54464;50.558;9.704;2023-07-13T15:42:53;3.30;;;0.90;;
27161;SDS011;54464;50.558;9.704;2023-07-13T15:45:37;1.47;;;0.87;;
27161;SDS011;54464;50.558;9.704;2023-07-13T15:48:13;0.90;;;0.60;;